createdAt,value
2016-10-27T00:00:28.718Z,56.63
2016-10-27T00:01:01.038Z,56.24
2016-10-27T00:01:33.370Z,56.63
2016-10-27T00:02:05.701Z,56.63
2016-10-27T00:02:38.030Z,56.53
2016-10-27T00:03:10.361Z,56.53
2016-10-27T00:03:42.762Z,56.24
2016-10-27T00:04:15.086Z,56.63
2016-10-27T00:04:47.403Z,56.34
2016-10-27T00:05:19.724Z,56.63
2016-10-27T00:05:52.041Z,56.63
2016-10-27T00:06:24.367Z,56.63
2016-10-27T00:06:56.689Z,56.24
2016-10-27T00:07:29.016Z,56.53
2016-10-27T00:08:01.318Z,56.53
2016-10-27T00:08:33.636Z,56.53
2016-10-27T00:09:05.971Z,56.53
2016-10-27T00:09:38.307Z,56.53
2016-10-27T00:10:10.639Z,56.34
2016-10-27T00:10:42.981Z,56.44
2016-10-27T00:11:15.300Z,56.53
2016-10-27T00:11:47.663Z,56.53
2016-10-27T00:12:20.004Z,56.44
2016-10-27T00:12:52.327Z,56.53
2016-10-27T00:13:24.644Z,56.44
2016-10-27T00:13:56.958Z,56.53
2016-10-27T00:14:29.283Z,56.63
2016-10-27T00:15:01.592Z,56.53
2016-10-27T00:15:33.920Z,56.53
2016-10-27T00:16:06.263Z,56.53
2016-10-27T00:16:38.594Z,56.53
2016-10-27T00:17:10.934Z,56.53
2016-10-27T00:17:43.252Z,56.53
2016-10-27T00:18:15.584Z,56.34
2016-10-27T00:18:47.908Z,56.44
2016-10-27T00:19:20.230Z,56.53
2016-10-27T00:19:52.561Z,56.53
2016-10-27T00:20:24.923Z,56.34
2016-10-27T00:20:57.254Z,56.34
2016-10-27T00:21:29.584Z,56.44
2016-10-27T00:22:01.908Z,56.53
2016-10-27T00:22:34.237Z,56.53
2016-10-27T00:23:06.559Z,56.53
2016-10-27T00:23:38.890Z,56.44
2016-10-27T00:24:11.211Z,56.44
2016-10-27T00:24:43.526Z,56.44
2016-10-27T00:25:15.852Z,56.44
2016-10-27T00:25:48.176Z,56.34
2016-10-27T00:26:20.503Z,56.63
2016-10-27T00:26:52.835Z,56.44
2016-10-27T00:27:25.153Z,56.63
2016-10-27T00:27:57.469Z,56.53
2016-10-27T00:28:29.789Z,56.44
2016-10-27T00:29:02.099Z,56.44
2016-10-27T00:29:34.429Z,56.44
2016-10-27T00:30:06.746Z,56.53
2016-10-27T00:30:39.075Z,56.34
2016-10-27T00:31:11.394Z,56.53
2016-10-27T00:31:43.708Z,56.53
2016-10-27T00:32:16.038Z,56.44
2016-10-27T00:32:48.392Z,56.63
2016-10-27T00:33:20.715Z,56.53
2016-10-27T00:33:53.042Z,56.44
2016-10-27T00:34:25.374Z,56.44
2016-10-27T00:34:57.695Z,56.63
2016-10-27T00:35:30.024Z,56.63
2016-10-27T00:36:02.349Z,56.44
2016-10-27T00:36:34.674Z,56.44
2016-10-27T00:37:07.007Z,56.34
2016-10-27T00:37:39.368Z,56.34
2016-10-27T00:38:11.680Z,56.53
2016-10-27T00:38:43.995Z,56.44
2016-10-27T00:39:16.358Z,56.53
2016-10-27T00:39:48.677Z,56.53
2016-10-27T00:40:21.010Z,56.44
2016-10-27T00:40:53.347Z,56.44
2016-10-27T00:41:25.668Z,56.53
2016-10-27T00:41:58.013Z,56.44
2016-10-27T00:42:30.345Z,56.44
2016-10-27T00:43:02.670Z,56.44
2016-10-27T00:43:35.006Z,56.44
2016-10-27T00:44:07.332Z,56.34
2016-10-27T00:44:39.666Z,56.63
2016-10-27T00:45:11.997Z,56.44
2016-10-27T00:45:44.323Z,56.53
2016-10-27T00:46:16.652Z,56.44
2016-10-27T00:46:48.979Z,56.53
2016-10-27T00:47:21.339Z,56.44
2016-10-27T00:47:53.694Z,56.53
2016-10-27T00:48:26.019Z,56.53
2016-10-27T00:48:58.347Z,56.44
2016-10-27T00:49:30.665Z,56.44
2016-10-27T00:50:02.992Z,56.34
2016-10-27T00:50:35.334Z,56.44
2016-10-27T00:51:07.663Z,56.44
2016-10-27T00:51:39.987Z,56.63
2016-10-27T00:52:12.321Z,56.63
2016-10-27T00:52:44.655Z,56.82
2016-10-27T00:53:16.978Z,56.73
2016-10-27T00:53:49.319Z,56.63
2016-10-27T00:54:21.645Z,56.53
2016-10-27T00:54:53.969Z,56.53
2016-10-27T00:55:26.294Z,56.63
2016-10-27T00:55:58.628Z,56.53
2016-10-27T00:56:30.969Z,56.63
2016-10-27T00:57:03.303Z,56.63
2016-10-27T00:57:35.630Z,56.63
2016-10-27T00:58:07.946Z,56.63
2016-10-27T00:58:40.283Z,56.44
2016-10-27T00:59:12.619Z,56.53
2016-10-27T00:59:44.945Z,56.73
2016-10-27T01:00:17.284Z,56.24
2016-10-27T01:00:49.643Z,56.24
2016-10-27T01:01:21.970Z,56.24
2016-10-27T01:01:54.293Z,56.82
2016-10-27T01:02:26.631Z,56.34
2016-10-27T01:02:58.957Z,56.34
2016-10-27T01:03:31.284Z,56.34
2016-10-27T01:04:03.611Z,56.63
2016-10-27T01:04:35.935Z,56.63
2016-10-27T01:05:08.292Z,56.63
2016-10-27T01:05:40.626Z,56.73
2016-10-27T01:06:12.946Z,56.63
2016-10-27T01:06:45.262Z,56.73
2016-10-27T01:07:17.580Z,56.63
2016-10-27T01:07:49.929Z,56.34
2016-10-27T01:08:22.296Z,56.63
2016-10-27T01:08:54.634Z,56.73
2016-10-27T01:09:26.954Z,56.53
2016-10-27T01:09:59.271Z,56.53
2016-10-27T01:10:31.593Z,56.63
2016-10-27T01:11:03.922Z,56.63
2016-10-27T01:11:36.245Z,56.73
2016-10-27T01:12:08.563Z,56.63
2016-10-27T01:12:40.896Z,56.53
2016-10-27T01:13:13.222Z,56.53
2016-10-27T01:13:45.552Z,56.73
2016-10-27T01:14:17.888Z,56.53
2016-10-27T01:14:50.220Z,56.63
2016-10-27T01:15:22.540Z,56.63
2016-10-27T01:15:54.863Z,56.53
2016-10-27T01:16:27.188Z,56.44
2016-10-27T01:16:59.549Z,56.53
2016-10-27T01:17:31.888Z,56.53
2016-10-27T01:18:04.216Z,56.24
2016-10-27T01:18:36.549Z,56.53
2016-10-27T01:19:08.874Z,56.44
2016-10-27T01:19:41.235Z,56.34
2016-10-27T01:20:13.556Z,56.63
2016-10-27T01:20:45.877Z,56.53
2016-10-27T01:21:18.213Z,56.44
2016-10-27T01:21:50.573Z,56.44
2016-10-27T01:22:22.888Z,56.63
2016-10-27T01:22:55.228Z,56.34
2016-10-27T01:23:27.549Z,56.44
2016-10-27T01:23:59.864Z,56.53
2016-10-27T01:24:32.181Z,56.34
2016-10-27T01:25:04.499Z,56.44
2016-10-27T01:25:36.855Z,56.53
2016-10-27T01:26:09.165Z,56.44
2016-10-27T01:26:41.488Z,56.63
2016-10-27T01:27:13.832Z,56.53
2016-10-27T01:27:46.153Z,56.63
2016-10-27T01:28:18.489Z,56.63
2016-10-27T01:28:50.812Z,56.34
2016-10-27T01:29:23.134Z,56.63
2016-10-27T01:29:55.457Z,56.63
2016-10-27T01:30:27.786Z,56.73
2016-10-27T01:31:00.123Z,56.44
2016-10-27T01:31:32.438Z,56.73
2016-10-27T01:32:04.757Z,56.92
2016-10-27T01:32:37.075Z,56.53
2016-10-27T01:33:09.378Z,56.63
2016-10-27T01:33:41.707Z,56.73
2016-10-27T01:34:14.050Z,56.73
2016-10-27T01:34:46.368Z,56.24
2016-10-27T01:35:18.698Z,56.73
2016-10-27T01:35:51.018Z,56.73
2016-10-27T01:36:23.337Z,56.73
2016-10-27T01:36:55.704Z,56.73
2016-10-27T01:37:28.025Z,56.73
2016-10-27T01:38:00.370Z,56.73
2016-10-27T01:38:32.750Z,56.73
2016-10-27T01:39:05.079Z,56.53
2016-10-27T01:39:37.425Z,56.53
2016-10-27T01:40:09.773Z,56.73
2016-10-27T01:40:42.095Z,56.53
2016-10-27T01:41:14.430Z,56.73
2016-10-27T01:41:46.764Z,56.63
2016-10-27T01:42:19.092Z,56.73
2016-10-27T01:42:51.430Z,56.82
2016-10-27T01:43:23.751Z,56.73
2016-10-27T01:43:56.075Z,56.63
2016-10-27T01:44:28.429Z,56.53
2016-10-27T01:45:00.753Z,56.63
2016-10-27T01:45:33.118Z,56.73
2016-10-27T01:46:05.446Z,56.63
2016-10-27T01:46:37.788Z,56.44
2016-10-27T01:47:10.115Z,56.73
2016-10-27T01:47:42.435Z,56.73
2016-10-27T01:48:14.778Z,56.63
2016-10-27T01:48:47.095Z,56.73
2016-10-27T01:49:19.425Z,56.73
2016-10-27T01:49:51.774Z,56.63
2016-10-27T01:50:24.102Z,56.82
2016-10-27T01:50:56.433Z,56.82
2016-10-27T01:51:28.752Z,56.82
2016-10-27T01:52:01.085Z,56.53
2016-10-27T01:52:33.419Z,56.73
2016-10-27T01:53:05.739Z,56.63
2016-10-27T01:53:38.061Z,56.92
2016-10-27T01:54:10.387Z,56.82
2016-10-27T01:54:42.711Z,56.92
2016-10-27T01:55:15.037Z,56.73
2016-10-27T01:55:47.400Z,56.92
2016-10-27T01:56:19.734Z,56.92
2016-10-27T01:56:52.066Z,56.63
2016-10-27T01:57:24.394Z,56.73
2016-10-27T01:57:56.720Z,56.82
2016-10-27T01:58:29.043Z,56.63
2016-10-27T01:59:01.367Z,56.82
2016-10-27T01:59:33.697Z,56.82
2016-10-27T02:00:06.019Z,56.92
2016-10-27T02:00:38.349Z,56.82
2016-10-27T02:01:10.679Z,56.92
2016-10-27T02:01:43.013Z,56.92
2016-10-27T02:02:15.326Z,56.82
2016-10-27T02:02:47.655Z,56.73
2016-10-27T02:03:19.981Z,56.63
2016-10-27T02:03:52.338Z,56.73
2016-10-27T02:04:24.675Z,56.92
2016-10-27T02:04:56.984Z,56.92
2016-10-27T02:05:29.345Z,56.82
2016-10-27T02:06:01.665Z,56.92
2016-10-27T02:06:34.038Z,56.82
2016-10-27T02:07:06.380Z,56.92
2016-10-27T02:07:38.703Z,56.82
2016-10-27T02:08:11.032Z,56.82
2016-10-27T02:08:43.373Z,56.82
2016-10-27T02:09:15.690Z,56.92
2016-10-27T02:09:48.026Z,56.92
2016-10-27T02:10:20.392Z,56.92
2016-10-27T02:10:52.707Z,56.82
2016-10-27T02:11:25.050Z,56.82
2016-10-27T02:11:57.386Z,56.92
2016-10-27T02:12:29.712Z,56.92
2016-10-27T02:13:02.036Z,56.92
2016-10-27T02:13:34.376Z,56.82
2016-10-27T02:14:06.701Z,56.73
2016-10-27T02:14:39.033Z,56.92
2016-10-27T02:15:11.363Z,56.92
2016-10-27T02:15:43.692Z,56.73
2016-10-27T02:16:16.021Z,57.01
2016-10-27T02:16:48.341Z,57.01
2016-10-27T02:17:20.663Z,56.82
2016-10-27T02:17:52.988Z,57.11
2016-10-27T02:18:25.318Z,56.73
2016-10-27T02:18:57.641Z,57.01
2016-10-27T02:19:29.992Z,56.73
2016-10-27T02:20:02.309Z,56.92
2016-10-27T02:20:34.647Z,57.11
2016-10-27T02:21:07.021Z,56.92
2016-10-27T02:21:39.343Z,56.92
2016-10-27T02:22:11.660Z,56.82
2016-10-27T02:22:43.988Z,56.92
2016-10-27T02:23:16.321Z,56.92
2016-10-27T02:23:48.644Z,56.92
2016-10-27T02:24:20.974Z,56.92
2016-10-27T02:24:53.308Z,56.92
2016-10-27T02:25:25.633Z,56.63
2016-10-27T02:25:57.960Z,56.73
2016-10-27T02:26:30.291Z,56.73
2016-10-27T02:27:02.616Z,56.73
2016-10-27T02:27:34.929Z,56.92
2016-10-27T02:28:07.260Z,56.92
2016-10-27T02:28:39.586Z,56.73
2016-10-27T02:29:11.931Z,56.73
2016-10-27T02:29:44.347Z,57.01
2016-10-27T02:30:16.670Z,56.92
2016-10-27T02:30:48.982Z,56.92
2016-10-27T02:31:21.296Z,56.92
2016-10-27T02:31:53.629Z,56.92
2016-10-27T02:32:25.955Z,56.92
2016-10-27T02:32:58.284Z,57.01
2016-10-27T02:33:30.632Z,57.11
2016-10-27T02:34:02.971Z,56.92
2016-10-27T02:34:35.315Z,57.01
2016-10-27T02:35:07.638Z,57.11
2016-10-27T02:35:39.969Z,57.01
2016-10-27T02:36:12.328Z,56.82
2016-10-27T02:36:44.660Z,57.11
2016-10-27T02:37:16.992Z,57.11
2016-10-27T02:37:49.317Z,57.11
2016-10-27T02:38:21.669Z,56.92
2016-10-27T02:38:53.992Z,56.92
2016-10-27T02:39:26.327Z,56.82
2016-10-27T02:39:58.697Z,57.11
2016-10-27T02:40:31.039Z,57.01
2016-10-27T02:41:03.387Z,57.21
2016-10-27T02:41:35.710Z,57.11
2016-10-27T02:42:08.048Z,57.21
2016-10-27T02:42:40.363Z,57.21
2016-10-27T02:43:12.687Z,57.21
2016-10-27T02:43:45.026Z,57.21
2016-10-27T02:44:17.351Z,57.21
2016-10-27T02:44:49.681Z,57.11
2016-10-27T02:45:21.992Z,57.21
2016-10-27T02:45:54.341Z,57.11
2016-10-27T02:46:26.658Z,57.11
2016-10-27T02:46:58.980Z,57.11
2016-10-27T02:47:31.293Z,57.01
2016-10-27T02:48:03.625Z,57.01
2016-10-27T02:48:35.955Z,57.21
2016-10-27T02:49:08.261Z,56.92
2016-10-27T02:49:40.586Z,57.21
2016-10-27T02:50:12.901Z,57.21
2016-10-27T02:50:45.230Z,57.11
2016-10-27T02:51:17.544Z,56.92
2016-10-27T02:51:49.866Z,57.21
2016-10-27T02:52:22.191Z,57.21
2016-10-27T02:52:54.520Z,57.11
2016-10-27T02:53:26.879Z,57.11
2016-10-27T02:53:59.200Z,57.21
2016-10-27T02:54:31.530Z,57.21
2016-10-27T02:55:03.862Z,57.21
2016-10-27T02:55:36.196Z,57.21
2016-10-27T02:56:08.536Z,57.01
2016-10-27T02:56:40.866Z,57.21
2016-10-27T02:57:13.195Z,57.5
2016-10-27T02:57:45.508Z,57.21
2016-10-27T02:58:17.834Z,57.3
2016-10-27T02:58:50.197Z,56.92
2016-10-27T02:59:22.516Z,57.21
2016-10-27T02:59:54.836Z,57.5
2016-10-27T03:00:27.151Z,57.5
2016-10-27T03:00:59.487Z,57.21
2016-10-27T03:01:31.808Z,57.3
2016-10-27T03:02:04.142Z,57.5
2016-10-27T03:02:36.460Z,57.59
2016-10-27T03:03:08.791Z,57.5
2016-10-27T03:03:41.111Z,57.21
2016-10-27T03:04:13.432Z,57.5
2016-10-27T03:04:45.768Z,57.5
2016-10-27T03:05:18.103Z,57.5
2016-10-27T03:05:50.436Z,57.3
2016-10-27T03:06:22.766Z,57.59
2016-10-27T03:06:55.106Z,57.59
2016-10-27T03:07:27.470Z,57.11
2016-10-27T03:07:59.804Z,57.01
2016-10-27T03:08:32.125Z,57.5
2016-10-27T03:09:04.457Z,57.5
2016-10-27T03:09:36.772Z,57.5
2016-10-27T03:10:09.104Z,57.5
2016-10-27T03:10:41.442Z,57.21
2016-10-27T03:11:13.761Z,57.01
2016-10-27T03:11:46.097Z,57.5
2016-10-27T03:12:18.458Z,57.4
2016-10-27T03:12:50.780Z,57.5
2016-10-27T03:13:23.093Z,57.01
2016-10-27T03:13:55.412Z,57.5
2016-10-27T03:14:27.737Z,57.5
2016-10-27T03:15:00.047Z,57.5
2016-10-27T03:15:32.365Z,57.4
2016-10-27T03:16:04.691Z,56.92
2016-10-27T03:16:37.027Z,57.11
2016-10-27T03:17:09.399Z,57.4
2016-10-27T03:17:41.726Z,57.5
2016-10-27T03:18:14.064Z,57.3
2016-10-27T03:18:46.395Z,57.5
2016-10-27T03:19:18.722Z,57.5
2016-10-27T03:19:51.063Z,57.5
2016-10-27T03:20:23.393Z,57.4
2016-10-27T03:20:55.717Z,57.4
2016-10-27T03:21:28.030Z,57.5
2016-10-27T03:22:00.352Z,57.4
2016-10-27T03:22:32.672Z,57.5
2016-10-27T03:23:05.005Z,57.3
2016-10-27T03:23:37.332Z,57.5
2016-10-27T03:24:09.705Z,57.21
2016-10-27T03:24:42.023Z,57.4
2016-10-27T03:25:14.335Z,57.5
2016-10-27T03:25:46.660Z,57.4
2016-10-27T03:26:18.978Z,57.5
2016-10-27T03:26:51.297Z,57.3
2016-10-27T03:27:23.619Z,57.5
2016-10-27T03:27:55.995Z,57.5
2016-10-27T03:28:28.325Z,57.4
2016-10-27T03:29:00.646Z,57.4
2016-10-27T03:29:32.969Z,57.5
2016-10-27T03:30:05.298Z,57.4
2016-10-27T03:30:37.629Z,57.3
2016-10-27T03:31:09.997Z,57.4
2016-10-27T03:31:42.333Z,57.4
2016-10-27T03:32:14.658Z,57.4
2016-10-27T03:32:46.980Z,57.3
2016-10-27T03:33:19.299Z,57.5
2016-10-27T03:33:51.612Z,57.5
2016-10-27T03:34:23.941Z,57.4
2016-10-27T03:34:56.273Z,57.5
2016-10-27T03:35:28.600Z,57.5
2016-10-27T03:36:00.924Z,57.78
2016-10-27T03:36:33.244Z,57.78
2016-10-27T03:37:05.559Z,57.5
2016-10-27T03:37:37.912Z,57.59
2016-10-27T03:38:10.240Z,57.78
2016-10-27T03:38:42.581Z,57.21
2016-10-27T03:39:14.922Z,57.5
2016-10-27T03:39:47.251Z,57.4
2016-10-27T03:40:19.582Z,57.4
2016-10-27T03:40:51.907Z,57.68
2016-10-27T03:41:24.230Z,57.4
2016-10-27T03:41:56.545Z,57.5
2016-10-27T03:42:28.872Z,57.21
2016-10-27T03:43:01.197Z,57.68
2016-10-27T03:43:33.522Z,57.4
2016-10-27T03:44:05.854Z,57.5
2016-10-27T03:44:38.219Z,57.59
2016-10-27T03:45:10.544Z,57.68
2016-10-27T03:45:42.877Z,57.5
2016-10-27T03:46:16.173Z,57.5
2016-10-27T03:46:48.491Z,57.5
2016-10-27T03:47:20.794Z,57.68
2016-10-27T03:47:53.108Z,57.21
2016-10-27T03:48:25.425Z,57.5
2016-10-27T03:48:57.750Z,57.3
2016-10-27T03:49:30.071Z,57.21
2016-10-27T03:50:02.395Z,57.59
2016-10-27T03:50:34.734Z,57.3
2016-10-27T03:51:07.063Z,57.59
2016-10-27T03:51:39.412Z,57.21
2016-10-27T03:52:11.772Z,57.11
2016-10-27T03:52:44.112Z,57.68
2016-10-27T03:53:16.427Z,57.3
2016-10-27T03:53:48.783Z,57.21
2016-10-27T03:54:21.115Z,57.68
2016-10-27T03:54:53.433Z,57.21
2016-10-27T03:55:25.804Z,57.68
2016-10-27T03:55:58.145Z,57.21
2016-10-27T03:56:30.457Z,57.59
2016-10-27T03:57:02.789Z,57.78
2016-10-27T03:57:35.111Z,57.11
2016-10-27T03:58:07.426Z,57.68
2016-10-27T03:58:39.750Z,57.59
2016-10-27T03:59:12.091Z,57.3
2016-10-27T03:59:44.423Z,57.11
2016-10-27T04:00:16.768Z,57.68
2016-10-27T04:00:49.098Z,57.21
2016-10-27T04:01:21.412Z,57.68
2016-10-27T04:01:53.740Z,57.3
2016-10-27T04:02:26.073Z,57.78
2016-10-27T04:02:58.408Z,57.3
2016-10-27T04:03:30.746Z,57.3
2016-10-27T04:04:03.084Z,57.3
2016-10-27T04:04:35.422Z,57.21
2016-10-27T04:05:07.785Z,57.21
2016-10-27T04:05:40.105Z,57.3
2016-10-27T04:06:12.422Z,57.3
2016-10-27T04:06:44.754Z,57.4
2016-10-27T04:07:17.077Z,57.59
2016-10-27T04:07:49.400Z,57.3
2016-10-27T04:08:21.717Z,57.3
2016-10-27T04:08:54.038Z,57.3
2016-10-27T04:09:26.367Z,57.3
2016-10-27T04:09:58.745Z,57.3
2016-10-27T04:10:31.068Z,57.3
2016-10-27T04:11:03.397Z,57.59
2016-10-27T04:11:35.716Z,57.3
2016-10-27T04:12:08.036Z,57.4
2016-10-27T04:12:40.372Z,57.4
2016-10-27T04:13:12.702Z,57.59
2016-10-27T04:13:45.019Z,57.68
2016-10-27T04:14:17.339Z,57.3
2016-10-27T04:14:49.657Z,57.68
2016-10-27T04:15:21.974Z,57.5
2016-10-27T04:15:54.307Z,57.3
2016-10-27T04:16:26.639Z,57.4
2016-10-27T04:16:58.959Z,57.5
2016-10-27T04:17:31.273Z,57.59
2016-10-27T04:18:03.606Z,57.5
2016-10-27T04:18:35.925Z,57.59
2016-10-27T04:19:08.255Z,57.4
2016-10-27T04:19:40.583Z,57.59
2016-10-27T04:20:12.916Z,57.3
2016-10-27T04:20:45.226Z,57.4
2016-10-27T04:21:17.556Z,57.59
2016-10-27T04:21:49.874Z,57.4
2016-10-27T04:22:22.185Z,57.59
2016-10-27T04:22:54.554Z,57.3
2016-10-27T04:23:26.912Z,57.4
2016-10-27T04:23:59.241Z,57.3
2016-10-27T04:24:31.582Z,57.4
2016-10-27T04:25:03.926Z,57.4
2016-10-27T04:25:36.268Z,57.5
2016-10-27T04:26:08.593Z,57.59
2016-10-27T04:26:40.902Z,57.4
2016-10-27T04:27:13.244Z,57.3
2016-10-27T04:27:45.572Z,57.5
2016-10-27T04:28:17.893Z,57.5
2016-10-27T04:28:50.249Z,57.3
2016-10-27T04:29:22.578Z,57.5
2016-10-27T04:29:54.937Z,57.3
2016-10-27T04:30:27.289Z,57.3
2016-10-27T04:30:59.614Z,57.4
2016-10-27T04:31:31.956Z,57.3
2016-10-27T04:32:04.294Z,57.3
2016-10-27T04:32:36.624Z,57.4
2016-10-27T04:33:08.948Z,57.3
2016-10-27T04:33:41.278Z,57.4
2016-10-27T04:34:13.619Z,57.3
2016-10-27T04:34:45.934Z,57.4
2016-10-27T04:35:18.318Z,57.59
2016-10-27T04:35:50.681Z,57.3
2016-10-27T04:36:23.002Z,57.4
2016-10-27T04:36:55.313Z,57.59
2016-10-27T04:37:27.641Z,57.4
2016-10-27T04:37:59.975Z,57.3
2016-10-27T04:38:32.314Z,57.4
2016-10-27T04:39:04.639Z,57.5
2016-10-27T04:39:36.960Z,57.4
2016-10-27T04:40:09.276Z,57.3
2016-10-27T04:40:41.601Z,57.3
2016-10-27T04:41:13.942Z,57.5
2016-10-27T04:41:46.272Z,57.4
2016-10-27T04:42:18.594Z,57.59
2016-10-27T04:42:50.911Z,57.4
2016-10-27T04:43:23.228Z,57.5
2016-10-27T04:43:55.556Z,57.4
2016-10-27T04:44:27.873Z,57.59
2016-10-27T04:45:00.186Z,57.68
2016-10-27T04:45:32.515Z,57.4
2016-10-27T04:46:04.850Z,57.68
2016-10-27T04:46:37.181Z,57.4
2016-10-27T04:47:09.519Z,57.4
2016-10-27T04:47:41.846Z,57.3
2016-10-27T04:48:14.184Z,57.4
2016-10-27T04:48:46.522Z,57.68
2016-10-27T04:49:18.885Z,57.5
2016-10-27T04:49:51.206Z,57.3
2016-10-27T04:50:23.541Z,57.4
2016-10-27T04:50:55.904Z,57.4
2016-10-27T04:51:28.237Z,57.3
2016-10-27T04:52:00.585Z,57.59
2016-10-27T04:52:32.915Z,57.4
2016-10-27T04:53:05.378Z,57.59
2016-10-27T04:53:37.815Z,57.59
2016-10-27T04:54:10.145Z,57.21
2016-10-27T04:54:42.474Z,57.3
2016-10-27T04:55:14.802Z,57.59
2016-10-27T04:55:47.124Z,57.3
2016-10-27T04:56:19.451Z,57.68
2016-10-27T04:56:51.778Z,57.5
2016-10-27T04:57:24.095Z,57.5
2016-10-27T04:57:56.471Z,57.5
2016-10-27T04:58:28.817Z,57.5
2016-10-27T04:59:01.145Z,57.5
2016-10-27T04:59:33.469Z,57.3
2016-10-27T05:00:05.784Z,57.5
2016-10-27T05:00:38.097Z,57.4
2016-10-27T05:01:10.430Z,57.4
2016-10-27T05:01:42.798Z,57.4
2016-10-27T05:02:15.114Z,57.4
2016-10-27T05:02:47.433Z,57.68
2016-10-27T05:03:19.814Z,57.4
2016-10-27T05:03:52.135Z,57.68
2016-10-27T05:04:24.454Z,57.59
2016-10-27T05:04:56.779Z,57.5
2016-10-27T05:05:29.112Z,57.5
2016-10-27T05:06:01.465Z,57.4
2016-10-27T05:06:33.799Z,57.5
2016-10-27T05:07:06.132Z,57.68
2016-10-27T05:07:38.500Z,57.78
2016-10-27T05:08:11.826Z,57.5
2016-10-27T05:08:44.151Z,57.5
2016-10-27T05:09:17.299Z,57.59
2016-10-27T05:09:49.635Z,57.59
2016-10-27T05:10:21.967Z,57.59
2016-10-27T05:10:54.296Z,57.5
2016-10-27T05:11:26.616Z,57.5
2016-10-27T05:11:58.956Z,57.5
2016-10-27T05:12:31.272Z,57.59
2016-10-27T05:13:03.595Z,57.59
2016-10-27T05:13:35.919Z,57.59
2016-10-27T05:14:08.245Z,57.59
2016-10-27T05:14:40.585Z,57.59
2016-10-27T05:15:12.907Z,57.4
2016-10-27T05:15:45.238Z,57.5
2016-10-27T05:16:17.574Z,57.3
2016-10-27T05:16:49.900Z,57.4
2016-10-27T05:17:22.224Z,57.5
2016-10-27T05:17:54.547Z,57.5
2016-10-27T05:18:26.874Z,57.4
2016-10-27T05:18:59.198Z,57.5
2016-10-27T05:19:31.568Z,57.68
2016-10-27T05:20:03.888Z,57.4
2016-10-27T05:20:36.219Z,57.4
2016-10-27T05:21:08.548Z,57.5
2016-10-27T05:21:40.869Z,57.5
2016-10-27T05:22:13.187Z,57.59
2016-10-27T05:22:45.506Z,57.5
2016-10-27T05:23:17.844Z,57.5
2016-10-27T05:23:50.173Z,57.4
2016-10-27T05:24:22.514Z,57.5
2016-10-27T05:24:54.849Z,57.68
2016-10-27T05:25:27.171Z,57.68
2016-10-27T05:25:59.499Z,57.5
2016-10-27T05:26:31.807Z,57.4
2016-10-27T05:27:04.129Z,57.4
2016-10-27T05:27:36.496Z,57.68
2016-10-27T05:28:08.822Z,57.59
2016-10-27T05:28:41.143Z,57.78
2016-10-27T05:29:13.510Z,57.78
2016-10-27T05:29:45.838Z,57.78
2016-10-27T05:30:18.157Z,57.78
2016-10-27T05:30:50.498Z,57.78
2016-10-27T05:31:22.834Z,57.78
2016-10-27T05:31:55.191Z,57.78
2016-10-27T05:32:27.509Z,57.78
2016-10-27T05:32:59.840Z,57.68
2016-10-27T05:33:32.165Z,57.68
2016-10-27T05:34:04.487Z,57.78
2016-10-27T05:34:38.323Z,57.78
2016-10-27T05:35:10.654Z,57.68
2016-10-27T05:35:43.003Z,57.78
2016-10-27T05:36:15.370Z,57.68
2016-10-27T05:36:47.701Z,57.78
2016-10-27T05:37:20.023Z,57.78
2016-10-27T05:37:52.390Z,57.78
2016-10-27T05:38:24.719Z,57.4
2016-10-27T05:38:57.048Z,57.5
2016-10-27T05:39:29.384Z,57.78
2016-10-27T05:40:01.727Z,57.78
2016-10-27T05:40:34.043Z,57.68
2016-10-27T05:41:06.373Z,57.59
2016-10-27T05:41:38.703Z,57.68
2016-10-27T05:42:11.030Z,57.68
2016-10-27T05:42:43.376Z,57.5
2016-10-27T05:43:15.714Z,57.78
2016-10-27T05:43:48.074Z,57.5
2016-10-27T05:44:22.434Z,57.78
2016-10-27T05:44:55.905Z,57.59
2016-10-27T05:45:29.243Z,57.5
2016-10-27T05:46:03.548Z,57.97
2016-10-27T05:46:37.208Z,57.68
2016-10-27T05:47:10.866Z,57.88
2016-10-27T05:47:44.537Z,57.97
2016-10-27T05:48:17.984Z,57.59
2016-10-27T05:48:51.060Z,57.88
2016-10-27T05:49:23.391Z,57.59
2016-10-27T05:49:55.739Z,57.59
2016-10-27T05:50:28.148Z,57.88
2016-10-27T05:51:00.683Z,57.78
2016-10-27T05:51:33.116Z,57.88
2016-10-27T05:52:05.666Z,57.68
2016-10-27T05:52:38.248Z,57.88
2016-10-27T05:53:10.815Z,57.68
2016-10-27T05:53:43.386Z,57.59
2016-10-27T05:54:15.958Z,57.68
2016-10-27T05:54:48.515Z,57.59
2016-10-27T05:55:21.002Z,57.68
2016-10-27T05:55:53.333Z,57.59
2016-10-27T05:56:25.750Z,57.78
2016-10-27T05:56:58.785Z,57.5
2016-10-27T05:57:31.105Z,57.59
2016-10-27T05:58:04.320Z,57.78
2016-10-27T05:58:36.637Z,57.78
2016-10-27T05:59:08.956Z,57.78
2016-10-27T05:59:41.296Z,57.78
2016-10-27T06:00:13.632Z,57.78
2016-10-27T06:00:45.956Z,57.78
2016-10-27T06:01:18.275Z,57.78
2016-10-27T06:01:50.736Z,57.78
2016-10-27T06:02:23.434Z,57.5
2016-10-27T06:02:55.936Z,57.68
2016-10-27T06:03:28.411Z,57.59
2016-10-27T06:04:01.779Z,57.78
2016-10-27T06:04:34.908Z,57.78
2016-10-27T06:05:07.727Z,57.88
2016-10-27T06:05:41.040Z,57.88
2016-10-27T06:06:14.077Z,57.88
2016-10-27T06:06:47.088Z,57.59
2016-10-27T06:07:21.001Z,57.88
2016-10-27T06:07:53.674Z,57.68
2016-10-27T06:08:26.715Z,57.59
2016-10-27T06:08:59.774Z,57.78
2016-10-27T06:09:32.318Z,57.78
2016-10-27T06:10:04.711Z,57.59
2016-10-27T06:10:37.041Z,57.68
2016-10-27T06:11:09.459Z,57.59
2016-10-27T06:11:48.418Z,57.68
2016-10-27T06:12:20.784Z,57.68
2016-10-27T06:12:53.303Z,57.88
2016-10-27T06:13:26.214Z,57.68
2016-10-27T06:13:58.527Z,57.68
2016-10-27T06:14:31.107Z,57.78
2016-10-27T06:15:03.826Z,57.68
2016-10-27T06:15:36.505Z,57.59
2016-10-27T06:16:09.652Z,57.68
2016-10-27T06:16:42.558Z,57.78
2016-10-27T06:17:15.297Z,57.88
2016-10-27T06:17:47.781Z,57.78
2016-10-27T06:18:20.125Z,57.68
2016-10-27T06:18:52.448Z,57.78
2016-10-27T06:19:24.774Z,57.59
2016-10-27T06:19:57.101Z,57.78
2016-10-27T06:20:29.434Z,57.88
2016-10-27T06:21:01.764Z,57.68
2016-10-27T06:21:34.146Z,57.59
2016-10-27T06:22:06.532Z,57.59
2016-10-27T06:22:38.857Z,57.59
2016-10-27T06:23:11.202Z,57.59
2016-10-27T06:23:43.515Z,57.97
2016-10-27T06:24:15.861Z,57.78
2016-10-27T06:24:48.316Z,57.88
2016-10-27T06:25:21.464Z,57.97
2016-10-27T06:25:53.812Z,57.68
2016-10-27T06:26:26.150Z,57.88
2016-10-27T06:27:00.440Z,57.78
2016-10-27T06:27:33.825Z,57.68
2016-10-27T06:28:07.329Z,57.88
2016-10-27T06:28:39.651Z,57.88
2016-10-27T06:29:12.827Z,57.78
2016-10-27T06:29:45.522Z,57.68
2016-10-27T06:30:18.011Z,57.88
2016-10-27T06:30:50.368Z,57.88
2016-10-27T06:31:22.698Z,57.68
2016-10-27T06:31:55.024Z,57.78
2016-10-27T06:32:27.361Z,57.68
2016-10-27T06:32:59.689Z,57.78
2016-10-27T06:33:32.031Z,57.88
2016-10-27T06:34:04.372Z,57.78
2016-10-27T06:34:36.695Z,57.88
2016-10-27T06:35:09.094Z,57.78
2016-10-27T06:35:41.433Z,57.68
2016-10-27T06:36:13.756Z,57.88
2016-10-27T06:36:46.090Z,57.88
2016-10-27T06:37:18.460Z,57.78
2016-10-27T06:37:50.792Z,57.68
2016-10-27T06:38:23.132Z,57.88
2016-10-27T06:38:55.490Z,58.07
2016-10-27T06:39:27.884Z,57.88
2016-10-27T06:40:00.219Z,57.88
2016-10-27T06:40:32.616Z,57.88
2016-10-27T06:41:04.958Z,57.78
2016-10-27T06:41:37.333Z,57.97
2016-10-27T06:42:09.674Z,57.88
2016-10-27T06:42:41.998Z,57.97
2016-10-27T06:43:14.328Z,57.88
2016-10-27T06:43:46.667Z,57.78
2016-10-27T06:44:18.982Z,58.07
2016-10-27T06:44:51.302Z,57.97
2016-10-27T06:45:23.691Z,57.97
2016-10-27T06:45:56.786Z,57.88
2016-10-27T06:46:29.136Z,57.78
2016-10-27T06:47:01.442Z,57.78
2016-10-27T06:47:33.834Z,57.88
2016-10-27T06:48:06.279Z,57.78
2016-10-27T06:48:38.697Z,57.88
2016-10-27T06:49:11.030Z,57.88
2016-10-27T06:49:43.374Z,57.97
2016-10-27T06:50:15.698Z,57.97
2016-10-27T06:50:48.026Z,57.88
2016-10-27T06:51:20.349Z,57.88
2016-10-27T06:51:52.672Z,57.78
2016-10-27T06:52:25.030Z,57.68
2016-10-27T06:52:57.526Z,57.68
2016-10-27T06:53:31.341Z,57.78
2016-10-27T06:54:04.939Z,57.78
2016-10-27T06:54:43.379Z,57.88
2016-10-27T06:55:17.891Z,57.68
2016-10-27T06:55:51.864Z,57.68
2016-10-27T06:56:25.945Z,57.97
2016-10-27T06:56:58.772Z,57.88
2016-10-27T06:58:51.376Z,57.88
2016-10-27T06:59:23.686Z,57.81
2016-10-27T06:59:56.902Z,57.78
2016-10-27T07:00:32.365Z,57.97
2016-10-27T07:01:05.310Z,58
2016-10-27T07:01:38.405Z,57.68
2016-10-27T07:02:10.741Z,58
2016-10-27T07:02:44.555Z,57.97